Time;durP1;ratioP1;P1;durP2;ratioP2;P2;SDS_P1;SDS_P2;PMS_P1;PMS_P2;Temp;Humidity;BMP_temperature;BMP_pressure;BME280_temperature;BME280_humidity;BME280_pressure;Samples;Min_cycle;Max_cycle;Signal;HPM_P1;HPM_P2
2023/03/29 00:00:18;;;;;;;6.57;3.53;;;;;;;4.39;100.00;101671.06;5032241;28;20503;-83
2023/03/29 00:02:48;;;;;;;5.72;3.78;;;;;;;4.37;100.00;101667.56;5118617;23;20057;-82
2023/03/29 00:05:17;;;;;;;6.20;3.47;;;;;;;4.29;100.00;101651.97;5031346;28;20029;-83
2023/03/29 00:07:42;;;;;;;6.13;3.47;;;;;;;4.43;100.00;101673.69;5032271;28;20057;-82
2023/03/29 00:10:09;;;;;;;5.15;3.35;;;;;;;4.38;100.00;101649.53;5031332;28;20069;-83
2023/03/29 00:12:37;;;;;;;8.80;3.72;;;;;;;4.50;100.00;101664.31;5031860;28;20105;-83
2023/03/29 00:15:05;;;;;;;6.20;3.58;;;;;;;4.47;100.00;101657.38;5032360;28;20104;-83
2023/03/29 00:17:30;;;;;;;6.40;3.25;;;;;;;4.35;100.00;101649.50;5031262;28;20029;-82
2023/03/29 00:19:56;;;;;;;6.88;3.85;;;;;;;4.36;100.00;101655.50;5032557;28;20028;-83
2023/03/29 00:22:21;;;;;;;7.03;3.97;;;;;;;4.34;100.00;101649.44;5032308;28;20061;-83
2023/03/29 00:24:47;;;;;;;7.78;3.85;;;;;;;4.30;100.00;101656.28;5031175;28;20544;-83
2023/03/29 00:27:14;;;;;;;7.72;3.55;;;;;;;4.26;100.00;101651.91;5032160;28;20556;-83
2023/03/29 00:29:39;;;;;;;5.68;3.70;;;;;;;4.24;100.00;101648.44;5031789;28;20029;-83
2023/03/29 00:32:05;;;;;;;5.30;3.45;;;;;;;4.18;100.00;101638.88;5031461;28;20045;-83
2023/03/29 00:34:30;;;;;;;6.47;3.60;;;;;;;4.22;100.00;101637.25;5031267;28;20041;-82
2023/03/29 00:36:56;;;;;;;7.10;3.72;;;;;;;4.21;100.00;101640.63;5035368;28;20050;-83
2023/03/29 00:39:24;;;;;;;8.70;3.75;;;;;;;4.26;100.00;101645.91;5034787;28;20108;-83
2023/03/29 00:41:50;;;;;;;5.97;3.30;;;;;;;4.22;100.00;101640.69;5021766;28;20037;-83
2023/03/29 00:44:53;;;;;;;6.20;3.53;;;;;;;4.33;100.00;101650.31;5035520;28;20034;-83
2023/03/29 00:47:24;;;;;;;4.70;3.20;;;;;;;4.27;100.00;101627.84;5024467;28;20208;-83
2023/03/29 00:49:51;;;;;;;7.25;3.63;;;;;;;4.26;100.00;101625.25;5035570;28;20021;-83
2023/03/29 00:52:20;;;;;;;6.32;3.45;;;;;;;4.38;100.00;101640.88;5034894;28;20033;-83
2023/03/29 00:54:53;;;;;;;6.05;3.00;;;;;;;4.27;100.00;101617.50;5035123;28;20052;-82
2023/03/29 00:57:19;;;;;;;4.75;2.97;;;;;;;4.30;100.00;101612.41;5035709;28;20026;-83
2023/03/29 00:59:47;;;;;;;5.07;3.47;;;;;;;4.35;100.00;101609.88;5034593;28;20112;-83
2023/03/29 01:02:20;;;;;;;5.13;3.15;;;;;;;4.46;100.00;101622.09;5035392;28;20043;-82
2023/03/29 01:04:54;;;;;;;6.43;3.50;;;;;;;4.49;100.00;101621.28;5035451;28;20022;-83
2023/03/29 01:07:29;;;;;;;5.65;3.60;;;;;;;4.43;100.00;101601.41;5034931;28;20033;-83
2023/03/29 01:10:05;;;;;;;7.25;3.30;;;;;;;4.58;100.00;101616.25;5035171;28;20040;-83
2023/03/29 01:12:37;;;;;;;6.63;3.55;;;;;;;4.51;100.00;101596.31;5017736;28;20037;-83
2023/03/29 01:15:08;;;;;;;6.10;3.53;;;;;;;4.64;100.00;101611.16;5034574;28;20061;-83
2023/03/29 01:17:34;;;;;;;5.05;3.20;;;;;;;4.65;100.00;101606.88;5034928;28;20033;-83
2023/03/29 01:20:27;;;;;;;7.32;3.70;;;;;;;4.68;100.00;101614.66;5035358;28;20080;-83
2023/03/29 01:23:08;;;;;;;6.30;3.40;;;;;;;4.69;100.00;101606.91;4998833;28;20034;-82
2023/03/29 01:26:25;;;;;;;7.22;3.22;;;;;;;4.72;100.00;101600.91;5034636;28;20521;-83
2023/03/29 01:28:58;;;;;;;6.95;3.20;;;;;;;4.65;100.00;101575.88;4983556;28;20455;-84
2023/03/29 01:31:28;;;;;;;6.85;3.42;;;;;;;4.78;100.00;101592.38;5033305;28;20024;-83
2023/03/29 01:34:17;;;;;;;4.72;2.97;;;;;;;4.78;100.00;101582.91;5034266;28;20037;-83
2023/03/29 01:36:49;;;;;;;6.47;3.45;;;;;;;4.74;100.00;101575.09;5020733;28;20112;-83
2023/03/29 01:39:15;;;;;;;6.60;3.50;;;;;;;4.77;100.00;101568.25;5034365;28;20438;-83
2023/03/29 01:41:49;;;;;;;8.20;3.47;;;;;;;4.87;100.00;101580.44;5033851;28;20133;-83
2023/03/29 01:44:25;;;;;;;5.60;2.97;;;;;;;4.83;100.00;101567.47;5034570;28;20041;-83
2023/03/29 01:46:55;;;;;;;9.65;3.08;;;;;;;4.88;100.00;101568.41;5032081;28;20035;-83
2023/03/29 01:49:28;;;;;;;8.27;3.47;;;;;;;4.93;100.00;101571.88;5034250;28;20030;-83
2023/03/29 01:51:58;;;;;;;5.20;3.17;;;;;;;4.90;100.00;101570.16;5034642;28;20412;-83
2023/03/29 01:57:01;;;;;;;4.22;2.80;;;;;;;4.82;100.00;101542.47;5064899;23;20056;-83
2023/03/29 01:59:29;;;;;;;9.50;3.10;;;;;;;4.91;100.00;101553.78;5034266;28;20071;-83
2023/03/29 02:02:01;;;;;;;7.53;3.47;;;;;;;4.91;100.00;101547.75;5033996;28;20465;-83
2023/03/29 02:04:35;;;;;;;7.35;3.13;;;;;;;4.82;100.00;101538.19;5033362;28;20485;-83
2023/03/29 02:07:37;;;;;;;9.35;3.10;;;;;;;4.19;100.00;101431.59;5028405;22;20401;-83
2023/03/29 02:10:07;;;;;;;6.35;3.35;;;;;;;4.32;100.00;101442.06;5032883;28;20492;-83
2023/03/29 02:12:36;;;;;;;6.25;3.00;;;;;;;4.38;100.00;101453.31;5033499;28;20036;-83
2023/03/29 02:15:10;;;;;;;7.57;3.17;;;;;;;4.92;100.00;101539.16;5034039;28;20052;-83
2023/03/29 02:17:35;;;;;;;8.65;3.40;;;;;;;4.95;100.00;101533.16;5032932;28;20033;-83
2023/03/29 02:20:00;;;;;;;6.13;2.92;;;;;;;4.96;100.00;101525.41;5033281;28;20029;-83
2023/03/29 02:22:36;;;;;;;6.20;2.78;;;;;;;4.83;100.00;101495.13;5033726;28;20037;-83
2023/03/29 02:25:03;;;;;;;7.05;3.20;;;;;;;4.79;100.00;101498.53;5032797;28;20036;-83
2023/03/29 02:27:29;;;;;;;6.20;2.97;;;;;;;5.03;100.00;101529.78;5033553;28;20441;-83
2023/03/29 02:30:00;;;;;;;5.55;2.97;;;;;;;4.85;100.00;101486.53;5117618;23;20028;-83
2023/03/29 02:32:51;;;;;;;7.53;3.38;;;;;;;5.08;100.00;101510.03;5013137;28;20433;-83
2023/03/29 02:35:37;;;;;;;8.80;3.28;;;;;;;4.84;100.00;101468.41;5013793;28;20026;-83
2023/03/29 02:38:09;;;;;;;5.47;3.00;;;;;;;4.82;100.00;101465.84;5012976;28;20021;-83
2023/03/29 02:40:39;;;;;;;7.80;3.40;;;;;;;5.07;100.00;101500.56;5013444;28;20026;-83
2023/03/29 02:43:13;;;;;;;5.30;2.65;;;;;;;5.16;100.00;101505.78;5013498;28;20034;-83
2023/03/29 02:45:41;;;;;;;4.40;2.75;;;;;;;5.19;100.00;101512.72;5012657;28;20041;-83
2023/03/29 02:48:11;;;;;;;5.75;2.70;;;;;;;5.22;100.00;101506.72;5013594;28;20017;-83
2023/03/29 02:50:39;;;;;;;5.45;3.03;;;;;;;5.23;100.00;101498.97;5013213;28;20022;-83
2023/03/29 02:53:13;;;;;;;5.28;2.80;;;;;;;5.20;100.00;101475.69;5013140;28;20022;-83
2023/03/29 02:55:39;;;;;;;6.38;2.97;;;;;;;5.27;100.00;101495.56;5013390;28;20034;-83
2023/03/29 02:58:07;;;;;;;4.25;2.90;;;;;;;5.24;100.00;101485.19;5013344;28;20026;-83
2023/03/29 03:00:38;;;;;;;5.75;2.80;;;;;;;5.32;100.00;101490.41;5011593;28;20112;-83
2023/03/29 03:03:07;;;;;;;6.88;2.80;;;;;;;5.27;100.00;101476.59;5013266;28;20037;-83
2023/03/29 03:05:33;;;;;;;4.45;2.70;;;;;;;5.33;100.00;101490.44;5013105;28;20030;-83
2023/03/29 03:07:59;;;;;;;4.95;2.65;;;;;;;5.33;100.00;101485.28;5012610;28;20021;-83
2023/03/29 03:10:25;;;;;;;5.07;2.75;;;;;;;5.36;100.00;101490.47;5013101;28;20490;-83
2023/03/29 03:12:50;;;;;;;6.45;2.45;;;;;;;5.27;100.00;101469.72;5012102;28;20070;-83
2023/03/29 03:15:16;;;;;;;6.88;3.22;;;;;;;5.38;100.00;101481.00;5013454;28;20032;-83
2023/03/29 03:17:41;;;;;;;4.40;2.75;;;;;;;5.39;100.00;101484.44;5013082;28;20104;-83
2023/03/29 03:20:12;;;;;;;6.38;2.58;;;;;;;5.28;100.00;101465.41;5012304;28;20136;-83
2023/03/29 03:22:40;;;;;;;4.10;2.58;;;;;;;5.39;100.00;101484.44;5012775;28;20040;-82
2023/03/29 03:25:05;;;;;;;6.95;2.83;;;;;;;5.35;100.00;101462.88;5012896;28;20029;-83
2023/03/29 03:27:37;;;;;;;6.53;2.90;;;;;;;5.42;100.00;101473.25;5011841;28;20037;-83
2023/03/29 03:30:06;;;;;;;6.57;2.92;;;;;;;5.38;100.00;101468.06;5013148;28;20052;-83
2023/03/29 03:32:33;;;;;;;6.18;2.78;;;;;;;5.44;100.00;101464.66;5013098;28;20037;-82
2023/03/29 03:34:59;;;;;;;5.05;2.78;;;;;;;5.33;100.00;101451.66;5012252;28;20022;-83
2023/03/29 03:37:26;;;;;;;4.78;2.92;;;;;;;5.46;100.00;101472.41;5019780;28;20056;-82
2023/03/29 03:39:52;;;;;;;4.45;2.72;;;;;;;5.45;100.00;101468.13;5026002;28;20049;-83
2023/03/29 03:42:17;;;;;;;6.13;2.80;;;;;;;5.36;100.00;101459.44;5031580;28;20428;-83
2023/03/29 03:44:43;;;;;;;5.95;2.92;;;;;;;5.46;100.00;101467.25;5021375;28;20024;-82
2023/03/29 03:47:09;;;;;;;5.32;2.47;;;;;;;5.48;100.00;101473.31;5026546;28;20363;-83
2023/03/29 03:49:34;;;;;;;5.88;2.70;;;;;;;5.48;100.00;101474.16;5012285;28;20064;-83
2023/03/29 03:52:00;;;;;;;5.50;2.60;;;;;;;5.45;100.00;101460.34;5014244;28;20045;-83
2023/03/29 03:54:26;;;;;;;6.38;2.90;;;;;;;5.45;100.00;101461.22;5025280;28;20048;-83
2023/03/29 03:56:51;;;;;;;9.50;3.25;;;;;;;5.51;100.00;101474.19;5012325;28;20029;-83
2023/03/29 03:59:17;;;;;;;3.92;2.67;;;;;;;5.50;100.00;101469.88;5012948;28;20422;-83
2023/03/29 04:01:45;;;;;;;4.53;2.70;;;;;;;5.51;100.00;101471.63;5012647;28;20148;-83
2023/03/29 04:04:11;;;;;;;6.03;2.78;;;;;;;5.50;100.00;101467.31;5011955;28;20474;-83
2023/03/29 04:06:36;;;;;;;7.10;2.95;;;;;;;5.45;100.00;101455.19;5012614;28;20083;-82
2023/03/29 04:09:03;;;;;;;7.38;3.08;;;;;;;5.34;100.00;101434.44;5012104;28;20026;-83
2023/03/29 04:11:28;;;;;;;6.90;3.05;;;;;;;5.47;100.00;101458.66;5029013;28;20473;-83
2023/03/29 04:13:53;;;;;;;4.88;2.95;;;;;;;5.37;100.00;101442.22;5016347;28;20033;-83
2023/03/29 04:16:19;;;;;;;8.38;3.20;;;;;;;5.43;100.00;101457.78;5017434;28;20143;-83
2023/03/29 04:18:45;;;;;;;6.35;2.80;;;;;;;5.37;100.00;101445.66;5036145;28;20487;-83
2023/03/29 04:21:10;;;;;;;6.13;3.05;;;;;;;5.32;100.00;101430.94;5022776;28;20026;-83
2023/03/29 04:23:35;;;;;;;8.68;3.33;;;;;;;5.32;100.00;101421.47;5015370;28;20034;-83
2023/03/29 04:26:01;;;;;;;8.70;3.33;;;;;;;5.48;100.00;101452.63;5016328;28;20026;-83
2023/03/29 04:28:26;;;;;;;6.53;3.60;;;;;;;5.41;100.00;101433.63;5019888;28;20097;-83
2023/03/29 04:30:51;;;;;;;5.93;3.13;;;;;;;5.48;100.00;101437.97;5025663;28;20053;-83
2023/03/29 04:33:17;;;;;;;5.15;3.15;;;;;;;5.50;100.00;101440.59;5017495;28;20493;-83
2023/03/29 04:35:42;;;;;;;4.35;2.78;;;;;;;5.48;100.00;101439.69;5028900;28;20454;-83
2023/03/29 04:38:09;;;;;;;6.47;3.45;;;;;;;5.45;100.00;101434.50;5022566;28;20022;-83
2023/03/29 04:40:35;;;;;;;5.53;3.30;;;;;;;5.50;100.00;101441.44;5015661;28;20536;-83
2023/03/29 04:43:01;;;;;;;7.10;3.72;;;;;;;5.50;100.00;101440.59;5083888;22;20112;-83
2023/03/29 04:45:27;;;;;;;4.32;3.15;;;;;;;5.55;100.00;101446.63;5033902;28;20025;-82
2023/03/29 04:47:55;;;;;;;5.60;3.30;;;;;;;5.56;100.00;101446.66;5026524;28;20098;-83
2023/03/29 04:50:21;;;;;;;6.72;3.15;;;;;;;5.52;100.00;101428.50;5165451;23;20050;-82
2023/03/29 04:52:46;;;;;;;6.03;3.50;;;;;;;5.52;100.00;101420.75;5015046;28;20080;-83
2023/03/29 04:55:11;;;;;;;7.43;3.33;;;;;;;5.66;100.00;101432.06;5015668;28;20022;-82
2023/03/29 04:57:37;;;;;;;6.80;3.78;;;;;;;5.69;100.00;101431.19;5015527;28;20030;-82
2023/03/29 05:00:14;;;;;;;8.05;3.85;;;;;;;5.68;100.00;101429.47;5015048;28;20029;-82
2023/03/29 05:02:41;;;;;;;4.32;3.15;;;;;;;5.72;100.00;101426.03;5014505;28;20030;-82
2023/03/29 05:05:07;;;;;;;6.47;3.63;;;;;;;5.73;100.00;101432.97;5003243;28;20061;-82
2023/03/29 05:07:32;;;;;;;7.30;3.53;;;;;;;5.71;100.00;101421.72;5014441;28;20045;-82
2023/03/29 05:13:30;;;;;;;7.38;3.30;;;;;;;5.55;100.00;101387.16;5034590;28;20036;-82
2023/03/29 05:19:45;;;;;;;8.68;3.38;;;;;;;5.58;100.00;101389.75;4963239;28;20603;-83
2023/03/29 05:22:11;;;;;;;8.10;3.88;;;;;;;5.82;100.00;101427.81;4986076;28;20083;-83
2023/03/29 05:24:39;;;;;;;6.82;3.67;;;;;;;5.69;100.00;101392.38;5034910;28;20017;-82
2023/03/29 05:27:04;;;;;;;7.43;3.67;;;;;;;5.78;100.00;101395.88;5034067;28;20017;-82
2023/03/29 05:29:31;;;;;;;8.80;4.03;;;;;;;5.85;100.00;101404.53;5034970;28;20437;-83
2023/03/29 05:31:58;;;;;;;10.27;3.72;;;;;;;5.77;100.00;101396.75;5034737;28;20438;-82
2023/03/29 05:34:26;;;;;;;9.73;3.88;;;;;;;5.90;100.00;101409.75;5034120;28;20068;-83
2023/03/29 05:36:51;;;;;;;8.40;3.65;;;;;;;5.97;100.00;101430.53;5034676;28;20116;-82
2023/03/29 05:39:17;;;;;;;7.57;3.70;;;;;;;5.83;100.00;101395.94;5034356;28;20100;-83
2023/03/29 05:41:43;;;;;;;6.18;3.28;;;;;;;6.05;100.00;101441.81;5033716;28;20029;-83
2023/03/29 05:44:35;;;;;;;6.13;3.50;;;;;;;6.09;100.00;101440.94;5041262;22;20086;-82
2023/03/29 05:47:01;;;;;;;6.75;3.60;;;;;;;5.64;100.00;101366.50;5034559;28;20049;-83
2023/03/29 05:50:18;;;;;;;11.85;4.13;;;;;;;6.15;100.00;101436.63;5033756;28;20476;-83
2023/03/29 05:52:44;;;;;;;8.02;3.63;;;;;;;5.92;100.00;101400.25;5034553;28;20025;-82
2023/03/29 05:55:12;;;;;;;6.40;3.80;;;;;;;6.16;100.00;101441.84;5027781;28;20037;-83
2023/03/29 06:02:51;;;;;;;7.60;3.90;;;;;;;6.26;100.00;101430.66;5440298;23;20050;-82
2023/03/29 06:05:20;;;;;;;8.68;3.47;;;;;;;6.29;100.00;101438.44;5167406;23;20084;-83
2023/03/29 06:07:47;;;;;;;5.80;3.92;;;;;;;6.22;100.00;101409.94;5034038;28;20021;-83
2023/03/29 06:16:09;;;;;;;6.65;3.90;;;;;;;6.16;100.00;101390.06;5033204;28;20095;-83
2023/03/29 06:18:50;;;;;;;10.48;4.55;;;;;;;5.91;100.00;101336.44;5033864;28;20022;-83
2023/03/29 06:21:15;;;;;;;9.57;3.83;;;;;;;6.58;100.00;101445.44;5034029;28;20060;-83
2023/03/29 06:23:41;;;;;;;9.18;4.30;;;;;;;6.51;100.00;101430.75;5033006;28;20053;-82
2023/03/29 06:26:06;;;;;;;7.88;4.10;;;;;;;6.40;100.00;101404.78;5033679;28;20049;-83
2023/03/29 06:28:31;;;;;;;10.18;4.18;;;;;;;6.70;100.00;101442.00;5033778;28;20021;-83
2023/03/29 06:31:00;;;;;;;8.80;3.85;;;;;;;6.60;100.00;101419.53;5032948;28;20036;-83
2023/03/29 06:33:33;;;;;;;8.27;3.72;;;;;;;6.78;100.00;101451.53;5033389;28;20525;-82
2023/03/29 06:35:58;;;;;;;8.60;3.92;;;;;;;6.70;100.00;101429.03;5033997;28;20041;-83
2023/03/29 06:38:26;;;;;;;5.25;3.53;;;;;;;6.74;100.00;101423.03;5032912;28;20113;-82
2023/03/29 06:40:59;;;;;;;11.88;4.68;;;;;;;6.78;100.00;101417.84;5033588;28;20079;-82
2023/03/29 06:43:25;;;;;;;8.98;3.90;;;;;;;6.98;100.00;101438.59;5033225;28;20408;-83
2023/03/29 06:45:50;;;;;;;9.18;4.15;;;;;;;7.04;100.00;101443.78;5032685;28;20026;-82
2023/03/29 06:48:16;;;;;;;12.15;4.10;;;;;;;6.99;100.00;101411.78;5033607;28;20056;-83
2023/03/29 06:50:41;;;;;;;6.30;3.88;;;;;;;7.19;100.00;101429.97;5033078;28;20427;-83
2023/03/29 06:53:06;;;;;;;8.95;4.72;;;;;;;7.20;100.00;101416.13;5032265;28;20513;-83
2023/03/29 06:55:32;;;;;;;8.23;4.95;;;;;;;7.29;100.00;101417.84;5032734;28;20025;-83
2023/03/29 06:57:57;;;;;;;7.95;3.80;;;;;;;7.47;100.00;101432.53;5032101;28;20029;-83
2023/03/29 07:00:28;;;;;;;7.90;4.28;;;;;;;7.51;100.00;101426.47;5032975;28;20104;-82
2023/03/29 07:02:56;;;;;;;7.85;4.15;;;;;;;7.58;100.00;101425.59;5030055;28;20037;-82
2023/03/29 07:05:22;;;;;;;9.32;4.60;;;;;;;7.72;100.00;101442.00;5022176;28;20061;-82
2023/03/29 07:07:55;;;;;;;7.18;4.07;;;;;;;7.68;100.00;101437.69;5032594;28;20029;-83
2023/03/29 07:10:31;;;;;;;8.40;4.22;;;;;;;7.77;100.00;101443.72;5033063;28;20461;-83
2023/03/29 07:12:59;;;;;;;9.00;4.57;;;;;;;7.66;100.00;101438.56;5031946;28;20493;-82
2023/03/29 07:15:25;;;;;;;8.32;4.18;;;;;;;7.74;100.00;101448.03;5033134;28;20037;-82
2023/03/29 07:17:50;;;;;;;5.32;3.97;;;;;;;7.70;100.00;101435.94;5032577;28;20017;-83
2023/03/29 07:20:16;;;;;;;12.43;4.80;;;;;;;7.81;100.00;101442.84;5031974;28;20033;-82
2023/03/29 07:22:42;;;;;;;6.43;4.10;;;;;;;7.85;100.00;101450.63;5032658;28;20029;-83
2023/03/29 07:25:09;;;;;;;9.57;3.92;;;;;;;7.79;100.00;101439.41;5033026;28;20045;-83
2023/03/29 07:27:39;;;;;;;9.65;4.68;;;;;;;7.92;100.00;101461.88;5031713;28;20060;-83
2023/03/29 07:30:09;;;;;;;6.93;4.10;;;;;;;7.91;100.00;101449.72;5032767;28;20022;-83
2023/03/29 07:32:38;;;;;;;7.07;4.22;;;;;;;7.93;100.00;101453.19;5032454;28;20021;-83
2023/03/29 07:35:05;;;;;;;10.57;4.82;;;;;;;8.04;100.00;101467.00;5032010;28;20104;-83
2023/03/29 07:37:33;;;;;;;8.63;4.78;;;;;;;8.07;100.00;101473.94;5032205;28;20025;-82
2023/03/29 07:40:03;;;;;;;9.50;4.78;;;;;;;8.06;100.00;101480.84;5032159;28;20440;-83
2023/03/29 07:42:29;;;;;;;10.95;4.63;;;;;;;8.08;100.00;101479.13;5032660;28;20029;-83
2023/03/29 07:44:54;;;;;;;9.68;4.40;;;;;;;8.10;100.00;101486.91;5032320;28;20416;-83
2023/03/29 07:47:20;;;;;;;7.82;4.15;;;;;;;8.03;100.00;101473.06;5031778;28;20037;-82
2023/03/29 07:49:45;;;;;;;7.07;4.63;;;;;;;8.08;100.00;101484.31;5032246;28;20076;-82
2023/03/29 07:52:10;;;;;;;7.68;5.05;;;;;;;8.06;100.00;101487.78;5032207;28;20048;-83
2023/03/29 08:01:39;;;;;;;11.25;5.13;;;;;;;7.23;100.00;101402.31;5011994;28;20536;-83
2023/03/29 08:04:05;;;;;;;9.18;5.25;;;;;;;7.62;100.00;101478.34;5012714;28;20041;-82
2023/03/29 08:06:39;;;;;;;9.18;5.13;;;;;;;7.64;100.00;101481.81;5012252;28;20030;-82
2023/03/29 08:09:05;;;;;;;12.15;6.15;;;;;;;7.64;100.00;101487.00;5012130;28;20022;-81
2023/03/29 08:11:31;;;;;;;11.38;5.82;;;;;;;7.63;100.00;101478.34;5012494;28;20032;-82
2023/03/29 08:13:57;;;;;;;14.00;5.90;;;;;;;7.67;100.00;101472.28;5012543;28;20092;-82
2023/03/29 08:16:23;;;;;;;11.13;5.85;;;;;;;7.73;100.00;101472.28;5011567;28;20500;-82
2023/03/29 08:18:48;;;;;;;9.38;5.38;;;;;;;7.85;100.00;101480.94;5012382;28;20054;-82
2023/03/29 08:21:13;;;;;;;15.75;5.82;;;;;;;7.92;100.00;101478.31;5012465;28;20036;-82
2023/03/29 08:23:39;;;;;;;9.27;6.07;;;;;;;8.08;100.00;101476.53;4997559;28;20030;-82
2023/03/29 08:26:04;;;;;;;9.75;5.63;;;;;;;8.27;100.00;101468.66;5012385;28;20026;-83
2023/03/29 08:28:30;;;;;;;14.27;5.93;;;;;;;8.39;100.00;101471.25;5012021;28;20029;-82
2023/03/29 08:30:55;;;;;;;9.10;5.80;;;;;;;8.50;100.00;101460.78;5011709;28;20026;-82
2023/03/29 08:33:21;;;;;;;11.00;6.22;;;;;;;8.63;100.00;101463.34;5012510;28;20057;-83
2023/03/29 08:38:21;;;;;;;11.55;5.97;;;;;;;8.73;100.00;101442.47;5129152;23;20050;-82
2023/03/29 08:40:48;;;;;;;11.93;6.45;;;;;;;8.89;100.00;101447.59;5006304;28;20041;-82
2023/03/29 08:43:22;;;;;;;8.23;5.30;;;;;;;9.09;100.00;101443.94;4992593;28;20435;-82
2023/03/29 08:46:12;;;;;;;12.20;5.45;;;;;;;9.25;100.00;101461.16;4992522;28;20038;-82
2023/03/29 08:48:44;;;;;;;9.70;5.53;;;;;;;9.17;100.00;101452.56;4990321;28;20030;-82
2023/03/29 08:51:29;;;;;;;9.95;5.63;;;;;;;9.19;100.00;101432.63;5010141;28;20060;-82
2023/03/29 08:54:00;;;;;;;10.63;6.25;;;;;;;9.38;100.00;101459.31;4992667;28;20038;-82
2023/03/29 08:56:29;;;;;;;10.20;5.50;;;;;;;9.42;100.00;101447.16;4992798;28;20122;-82
2023/03/29 08:58:56;;;;;;;11.20;5.80;;;;;;;9.42;100.00;101435.03;4995055;28;20036;-83
2023/03/29 09:01:23;;;;;;;10.82;5.80;;;;;;;9.49;100.00;101457.50;4996349;28;20025;-82
2023/03/29 09:04:02;;;;;;;12.95;6.25;;;;;;;9.55;100.00;101444.44;4995766;28;20038;-82
2023/03/29 09:06:27;;;;;;;11.48;5.43;;;;;;;9.67;100.00;101458.19;4995203;28;20015;-82
2023/03/29 09:08:52;;;;;;;10.73;5.93;;;;;;;9.61;100.00;101441.78;4995799;28;20367;-82
2023/03/29 09:11:23;;;;;;;9.35;5.80;;;;;;;9.66;100.00;101448.66;4995997;28;20030;-82
2023/03/29 09:14:26;;;;;;;10.18;5.63;;;;;;;9.96;100.00;101440.53;4994976;28;20037;-82
2023/03/29 09:17:29;;;;;;;11.00;5.70;;;;;;;10.33;100.00;101453.13;4982038;28;20026;-82
2023/03/29 09:20:06;;;;;;;9.02;5.35;;;;;;;10.18;100.00;101450.72;4994891;28;20554;-82
2023/03/29 09:22:40;;;;;;;8.23;5.43;;;;;;;10.01;100.00;101448.31;4995508;28;20113;-82
2023/03/29 09:25:27;;;;;;;10.13;5.50;;;;;;;9.94;100.00;101444.91;4995706;28;20023;-82
2023/03/29 09:28:00;;;;;;;11.98;5.68;;;;;;;10.03;100.00;101436.09;4994764;28;20038;-82
2023/03/29 09:30:31;;;;;;;10.40;5.30;;;;;;;10.09;100.00;101443.84;4995743;28;20032;-82
2023/03/29 09:33:07;;;;;;;10.75;5.53;;;;;;;9.98;100.00;101424.91;4995091;28;20081;-82
2023/03/29 09:35:40;;;;;;;9.73;5.63;;;;;;;10.19;100.00;101457.63;4995303;28;20157;-82
2023/03/29 09:38:11;;;;;;;9.25;5.88;;;;;;;10.02;100.00;101452.63;4995057;28;20045;-82
2023/03/29 09:40:50;;;;;;;12.30;5.93;;;;;;;10.11;100.00;101460.34;5009686;23;21522;-82
2023/03/29 09:43:27;;;;;;;12.95;6.15;;;;;;;10.01;100.00;101462.19;5034553;28;20536;-82
2023/03/29 09:45:57;;;;;;;12.52;6.00;;;;;;;9.90;100.00;101457.97;5021541;28;20070;-82
2023/03/29 09:48:25;;;;;;;13.93;6.63;;;;;;;9.86;100.00;101459.75;5033847;28;20029;-83
2023/03/29 09:50:51;;;;;;;10.20;6.30;;;;;;;9.84;100.00;101445.84;5034321;28;20026;-82
2023/03/29 09:53:18;;;;;;;10.32;5.85;;;;;;;9.87;100.00;101443.22;5034714;28;20428;-82
2023/03/29 09:55:47;;;;;;;11.23;6.63;;;;;;;9.68;100.00;101433.88;5033267;28;20060;-82
2023/03/29 09:58:18;;;;;;;13.75;7.63;;;;;;;9.55;100.00;101433.16;5034587;28;20022;-82
2023/03/29 10:00:45;;;;;;;14.48;6.65;;;;;;;9.73;100.00;101460.75;5033318;28;20029;-83
2023/03/29 10:03:18;;;;;;;11.25;6.50;;;;;;;9.87;100.00;101453.63;5034016;28;20037;-82
2023/03/29 10:05:45;;;;;;;14.13;7.13;;;;;;;10.14;100.00;101459.44;5033889;28;20524;-83
2023/03/29 10:08:29;;;;;;;9.70;6.65;;;;;;;10.25;100.00;101444.53;5033002;28;20032;-82
2023/03/29 10:11:00;;;;;;;10.65;6.05;;;;;;;10.29;100.00;101441.03;5033959;28;20029;-82
2023/03/29 10:13:31;;;;;;;12.65;7.05;;;;;;;10.34;100.00;101444.47;5033885;28;20142;-82
2023/03/29 10:16:06;;;;;;;13.93;7.22;;;;;;;10.44;100.00;101453.03;5033361;28;20056;-82
2023/03/29 10:18:38;;;;;;;11.38;6.45;;;;;;;10.75;100.00;101451.69;5033803;28;20025;-82
2023/03/29 10:21:04;;;;;;;10.73;6.40;;;;;;;10.96;100.00;101449.66;5034151;28;20061;-82
2023/03/29 10:23:39;;;;;;;9.20;5.95;;;;;;;11.09;100.00;101451.19;5032837;28;20108;-83
2023/03/29 10:26:21;;;;;;;9.38;6.95;;;;;;;10.96;100.00;101431.41;5033659;28;20092;-83
2023/03/29 10:28:47;;;;;;;10.55;6.35;;;;;;;10.83;100.00;101429.88;5020132;28;20022;-82
2023/03/29 10:31:18;;;;;;;9.80;6.13;;;;;;;10.88;100.00;101430.66;5033114;28;20037;-82
2023/03/29 10:33:51;;;;;;;12.10;6.57;;;;;;;11.28;100.00;101422.16;5033548;28;20022;-82
2023/03/29 10:36:16;;;;;;;14.90;6.33;;;;;;;11.55;100.00;101415.63;5032629;28;20029;-82
2023/03/29 10:38:43;;;;;;;9.70;5.78;;;;;;;11.72;100.00;101406.56;5033212;28;20481;-82
2023/03/29 10:41:10;;;;;;;12.38;6.50;;;;;;;11.92;100.00;101421.88;5033102;28;20041;-82
2023/03/29 10:43:49;;;;;;;9.48;5.40;;;;;;;11.93;100.00;101421.00;5016634;28;20109;-82
2023/03/29 10:46:26;;;;;;;10.35;6.03;;;;;;;12.08;100.00;101411.13;5023672;28;20049;-82
2023/03/29 10:49:08;;;;;;;8.73;5.88;;;;;;;12.29;100.00;101407.19;5033102;28;20076;-82
2023/03/29 10:51:34;;;;;;;8.35;5.43;;;;;;;12.39;100.00;101391.28;5021125;28;20343;-82
2023/03/29 10:54:01;;;;;;;12.52;6.10;;;;;;;12.54;100.00;101371.75;5027648;28;20025;-82
2023/03/29 10:56:38;;;;;;;9.35;5.65;;;;;;;12.87;100.00;101385.78;4999914;28;20072;-82
2023/03/29 10:59:15;;;;;;;9.57;6.30;;;;;;;13.11;100.00;101379.13;5026246;28;20029;-82
2023/03/29 11:02:13;;;;;;;11.35;6.25;;;;;;;13.52;99.18;101376.34;5007410;28;20454;-82
2023/03/29 11:04:56;;;;;;;9.38;5.88;;;;;;;13.85;99.13;101376.28;5031972;28;20043;-82
2023/03/29 11:07:48;;;;;;;9.15;5.93;;;;;;;14.02;90.57;101353.91;5021431;28;20026;-82
2023/03/29 11:10:14;;;;;;;8.25;5.40;;;;;;;14.11;88.31;101358.03;5008550;28;20039;-82
2023/03/29 11:12:51;;;;;;;10.60;5.85;;;;;;;14.00;86.85;101371.47;5032331;28;20105;-82
2023/03/29 11:15:35;;;;;;;10.07;5.30;;;;;;;14.17;90.01;101363.09;5032981;28;20026;-82
2023/03/29 11:18:19;;;;;;;8.90;5.68;;;;;;;14.23;90.77;101359.44;5032675;28;20051;-82
2023/03/29 11:21:07;;;;;;;10.32;5.60;;;;;;;14.15;87.57;101364.91;5032173;28;20025;-82
2023/03/29 11:23:49;;;;;;;8.93;6.03;;;;;;;13.89;87.16;101351.72;5032485;28;20028;-82
2023/03/29 11:26:28;;;;;;;11.55;5.78;;;;;;;13.99;88.09;101372.34;5019270;28;20032;-82
2023/03/29 11:29:09;;;;;;;10.50;6.25;;;;;;;14.15;88.84;101353.56;5007786;28;20037;-82
2023/03/29 11:31:53;;;;;;;10.75;5.82;;;;;;;14.29;85.30;101367.13;5031528;28;20029;-83
2023/03/29 11:34:18;;;;;;;8.63;6.18;;;;;;;14.24;85.99;101372.50;5022002;28;20033;-82
2023/03/29 11:36:58;;;;;;;7.83;5.10;;;;;;;14.40;85.29;101378.13;5030986;28;20025;-82
2023/03/29 11:39:48;;;;;;;8.40;5.75;;;;;;;14.56;84.33;101375.94;5021516;28;20352;-83
2023/03/29 11:42:22;;;;;;;7.82;5.32;;;;;;;14.71;85.07;101359.72;5013596;28;20050;-82
2023/03/29 11:44:51;;;;;;;9.70;6.00;;;;;;;14.83;80.61;101350.56;5012544;28;20025;-82
2023/03/29 11:47:20;;;;;;;8.88;5.53;;;;;;;15.15;82.77;101365.22;5012078;28;20041;-82
2023/03/29 11:49:55;;;;;;;10.15;5.95;;;;;;;15.40;77.67;101362.63;5012370;28;20137;-82
2023/03/29 11:52:28;;;;;;;7.68;5.32;;;;;;;15.80;78.21;101344.59;5012745;28;20042;-82
2023/03/29 11:55:07;;;;;;;8.38;5.35;;;;;;;16.05;74.11;101358.50;5005155;28;20022;-82
2023/03/29 12:07:06;;;;;;;10.80;5.20;;;;;;;16.33;70.82;101357.44;4993207;28;20089;-82
2023/03/29 12:09:40;;;;;;;7.65;5.70;;;;;;;15.76;71.10;101361.38;4991743;28;20080;-82
2023/03/29 12:12:10;;;;;;;;;;;;;;;15.73;77.04;101359.72;4993437;28;20030;-82
2023/03/29 12:14:45;;;;;;;9.18;5.45;;;;;;;15.74;74.56;101347.44;4991596;28;20004;-82
2023/03/29 12:17:21;;;;;;;9.27;5.03;;;;;;;16.06;72.29;101360.25;4993204;28;20031;-82